sensor_id;sensor_type;location;lat;lon;timestamp;pressure;altitude;pressure_sealevel;temperature;humidity
21826;BME280;11075;47.944;11.776;2023-07-22T00:01:05;94849.91;;;5.47;88.86
21826;BME280;11075;47.944;11.776;2023-07-22T00:03:32;94852.28;;;5.49;87.47
21826;BME280;11075;47.944;11.776;2023-07-22T00:06:07;94847.41;;;5.15;90.91
21826;BME280;11075;47.944;11.776;2023-07-22T00:08:35;94844.53;;;5.11;92.08
21826;BME280;11075;47.944;11.776;2023-07-22T00:11:04;94845.94;;;4.95;95.10
21826;BME280;11075;47.944;11.776;2023-07-22T00:13:32;94850.53;;;5.30;91.11
21826;BME280;11075;47.944;11.776;2023-07-22T00:15:59;94849.97;;;5.70;87.39
21826;BME280;11075;47.944;11.776;2023-07-22T00:18:27;94848.94;;;5.57;86.70
21826;BME280;11075;47.944;11.776;2023-07-22T00:20:54;94848.22;;;5.87;86.56
21826;BME280;11075;47.944;11.776;2023-07-22T00:23:21;94845.66;;;5.60;87.85
21826;BME280;11075;47.944;11.776;2023-07-22T00:25:49;94842.06;;;4.87;93.58
21826;BME280;11075;47.944;11.776;2023-07-22T00:28:15;94839.28;;;4.92;95.32
21826;BME280;11075;47.944;11.776;2023-07-22T00:30:43;94840.25;;;5.24;92.58
21826;BME280;11075;47.944;11.776;2023-07-22T00:33:09;94834.72;;;5.20;88.64
21826;BME280;11075;47.944;11.776;2023-07-22T00:35:36;94832.47;;;5.00;92.97
21826;BME280;11075;47.944;11.776;2023-07-22T00:38:03;94822.97;;;4.94;89.84
21826;BME280;11075;47.944;11.776;2023-07-22T00:40:30;94809.34;;;4.82;90.18
21826;BME280;11075;47.944;11.776;2023-07-22T00:42:58;94808.13;;;4.47;93.29
21826;BME280;11075;47.944;11.776;2023-07-22T00:45:28;94809.53;;;4.99;88.62
21826;BME280;11075;47.944;11.776;2023-07-22T00:47:55;94812.66;;;5.15;86.03
21826;BME280;11075;47.944;11.776;2023-07-22T00:50:23;94816.47;;;4.86;87.87
21826;BME280;11075;47.944;11.776;2023-07-22T00:52:51;94824.06;;;4.93;85.42
21826;BME280;11075;47.944;11.776;2023-07-22T00:55:18;94812.00;;;5.09;84.65
21826;BME280;11075;47.944;11.776;2023-07-22T00:57:45;94822.56;;;5.14;83.54
21826;BME280;11075;47.944;11.776;2023-07-22T01:00:12;94830.78;;;5.04;85.24
21826;BME280;11075;47.944;11.776;2023-07-22T01:02:40;94818.63;;;4.98;86.57
21826;BME280;11075;47.944;11.776;2023-07-22T01:05:08;94815.63;;;5.13;83.08
21826;BME280;11075;47.944;11.776;2023-07-22T01:07:36;94814.94;;;5.21;80.19
21826;BME280;11075;47.944;11.776;2023-07-22T01:10:05;94809.97;;;5.28;79.55
21826;BME280;11075;47.944;11.776;2023-07-22T01:12:32;94812.88;;;5.18;82.47
21826;BME280;11075;47.944;11.776;2023-07-22T01:14:59;94811.78;;;5.06;83.41
21826;BME280;11075;47.944;11.776;2023-07-22T01:17:27;94812.50;;;4.70;86.30
21826;BME280;11075;47.944;11.776;2023-07-22T01:19:56;94818.81;;;4.60;85.66
21826;BME280;11075;47.944;11.776;2023-07-22T01:22:23;94812.69;;;4.87;84.41
21826;BME280;11075;47.944;11.776;2023-07-22T01:24:50;94814.19;;;4.20;89.01
21826;BME280;11075;47.944;11.776;2023-07-22T01:27:17;94812.91;;;3.85;96.03
21826;BME280;11075;47.944;11.776;2023-07-22T01:29:44;94812.22;;;3.79;94.96
21826;BME280;11075;47.944;11.776;2023-07-22T01:32:11;94810.34;;;3.61;97.63
21826;BME280;11075;47.944;11.776;2023-07-22T01:34:38;94813.22;;;3.27;100.00
21826;BME280;11075;47.944;11.776;2023-07-22T01:37:06;94820.25;;;2.99;100.00
21826;BME280;11075;47.944;11.776;2023-07-22T01:39:33;94818.19;;;3.71;97.29
21826;BME280;11075;47.944;11.776;2023-07-22T01:42:00;94807.22;;;3.91;91.90
21826;BME280;11075;47.944;11.776;2023-07-22T01:44:27;94807.13;;;4.56;85.03
21826;BME280;11075;47.944;11.776;2023-07-22T01:46:54;94811.00;;;4.50;85.91
21826;BME280;11075;47.944;11.776;2023-07-22T01:49:21;94813.22;;;3.83;87.13
21826;BME280;11075;47.944;11.776;2023-07-22T01:51:48;94816.38;;;4.18;84.80
21826;BME280;11075;47.944;11.776;2023-07-22T01:54:14;94819.13;;;4.13;84.11
21826;BME280;11075;47.944;11.776;2023-07-22T01:56:42;94825.38;;;3.52;91.39
21826;BME280;11075;47.944;11.776;2023-07-22T01:59:08;94814.75;;;3.33;96.20
21826;BME280;11075;47.944;11.776;2023-07-22T02:01:36;94821.00;;;3.80;89.07
21826;BME280;11075;47.944;11.776;2023-07-22T02:04:03;94825.63;;;3.74;90.27
21826;BME280;11075;47.944;11.776;2023-07-22T02:06:30;94823.66;;;3.42;92.32
21826;BME280;11075;47.944;11.776;2023-07-22T02:08:57;94812.59;;;3.72;86.07
21826;BME280;11075;47.944;11.776;2023-07-22T02:11:24;94826.03;;;3.81;87.13
21826;BME280;11075;47.944;11.776;2023-07-22T02:13:50;94828.06;;;3.52;87.58
21826;BME280;11075;47.944;11.776;2023-07-22T02:16:17;94832.25;;;2.48;99.92
21826;BME280;11075;47.944;11.776;2023-07-22T02:18:45;94833.00;;;3.21;94.50
21826;BME280;11075;47.944;11.776;2023-07-22T02:21:12;94830.66;;;3.38;91.80
21826;BME280;11075;47.944;11.776;2023-07-22T02:23:40;94831.50;;;3.15;94.33
21826;BME280;11075;47.944;11.776;2023-07-22T02:26:06;94831.66;;;3.61;87.20
21826;BME280;11075;47.944;11.776;2023-07-22T02:28:34;94837.19;;;3.46;89.11
21826;BME280;11075;47.944;11.776;2023-07-22T02:31:02;94827.19;;;3.37;89.52
21826;BME280;11075;47.944;11.776;2023-07-22T02:33:34;94835.84;;;3.67;86.92
21826;BME280;11075;47.944;11.776;2023-07-22T02:36:01;94830.06;;;3.22;91.02
21826;BME280;11075;47.944;11.776;2023-07-22T02:38:28;94834.59;;;3.40;89.10
21826;BME280;11075;47.944;11.776;2023-07-22T02:41:01;94836.84;;;3.71;85.10
21826;BME280;11075;47.944;11.776;2023-07-22T02:43:29;94831.94;;;3.78;81.94
21826;BME280;11075;47.944;11.776;2023-07-22T02:45:56;94829.38;;;3.73;83.46
21826;BME280;11075;47.944;11.776;2023-07-22T02:48:23;94832.66;;;2.85;91.16
21826;BME280;11075;47.944;11.776;2023-07-22T02:50:49;94832.22;;;3.39;86.06
21826;BME280;11075;47.944;11.776;2023-07-22T02:53:16;94827.63;;;3.44;85.94
21826;BME280;11075;47.944;11.776;2023-07-22T02:55:43;94835.38;;;2.79;92.60
21826;BME280;11075;47.944;11.776;2023-07-22T02:58:10;94842.41;;;2.94;93.57
21826;BME280;11075;47.944;11.776;2023-07-22T03:00:38;94841.22;;;3.24;91.60
21826;BME280;11075;47.944;11.776;2023-07-22T03:03:05;94843.97;;;3.75;88.37
21826;BME280;11075;47.944;11.776;2023-07-22T03:05:32;94839.56;;;3.47;91.31
21826;BME280;11075;47.944;11.776;2023-07-22T03:07:59;94839.81;;;3.69;90.17
21826;BME280;11075;47.944;11.776;2023-07-22T03:10:26;94843.13;;;3.80;90.11
21826;BME280;11075;47.944;11.776;2023-07-22T03:12:53;94845.16;;;3.69;92.20
21826;BME280;11075;47.944;11.776;2023-07-22T03:15:23;94839.13;;;3.96;89.56
21826;BME280;11075;47.944;11.776;2023-07-22T03:17:49;94839.44;;;3.76;92.84
21826;BME280;11075;47.944;11.776;2023-07-22T03:20:17;94841.09;;;3.72;92.00
21826;BME280;11075;47.944;11.776;2023-07-22T03:22:46;94833.09;;;3.91;91.76
21826;BME280;11075;47.944;11.776;2023-07-22T03:25:14;94840.78;;;3.92;90.98
21826;BME280;11075;47.944;11.776;2023-07-22T03:27:44;94844.88;;;4.03;92.72
21826;BME280;11075;47.944;11.776;2023-07-22T03:30:17;94855.78;;;4.21;91.72
21826;BME280;11075;47.944;11.776;2023-07-22T03:32:45;94844.25;;;4.71;86.83
21826;BME280;11075;47.944;11.776;2023-07-22T03:35:14;94846.31;;;4.28;90.13
21826;BME280;11075;47.944;11.776;2023-07-22T03:37:41;94845.88;;;4.07;95.20
21826;BME280;11075;47.944;11.776;2023-07-22T03:40:09;94852.75;;;4.27;93.55
21826;BME280;11075;47.944;11.776;2023-07-22T03:42:54;94841.91;;;4.51;90.72
21826;BME280;11075;47.944;11.776;2023-07-22T03:45:22;94852.44;;;4.61;90.32
21826;BME280;11075;47.944;11.776;2023-07-22T03:47:58;94853.78;;;4.45;93.40
21826;BME280;11075;47.944;11.776;2023-07-22T03:50:26;94854.56;;;4.46;90.78
21826;BME280;11075;47.944;11.776;2023-07-22T03:52:53;94850.41;;;4.53;93.29
21826;BME280;11075;47.944;11.776;2023-07-22T03:55:20;94853.72;;;4.64;91.59
21826;BME280;11075;47.944;11.776;2023-07-22T03:57:47;94851.78;;;4.37;93.13
21826;BME280;11075;47.944;11.776;2023-07-22T04:00:14;94852.53;;;3.54;100.00
21826;BME280;11075;47.944;11.776;2023-07-22T04:02:41;94856.63;;;3.65;100.00
21826;BME280;11075;47.944;11.776;2023-07-22T04:05:08;94858.03;;;3.81;100.00
21826;BME280;11075;47.944;11.776;2023-07-22T04:07:35;94850.66;;;3.92;98.61
21826;BME280;11075;47.944;11.776;2023-07-22T04:10:02;94860.75;;;3.57;100.00
21826;BME280;11075;47.944;11.776;2023-07-22T04:12:29;94866.09;;;3.76;100.00
21826;BME280;11075;47.944;11.776;2023-07-22T04:14:56;94863.28;;;3.86;100.00
21826;BME280;11075;47.944;11.776;2023-07-22T04:17:23;94865.03;;;3.77;100.00
21826;BME280;11075;47.944;11.776;2023-07-22T04:19:51;94867.38;;;4.30;100.00
21826;BME280;11075;47.944;11.776;2023-07-22T04:22:20;94866.69;;;4.38;100.00
21826;BME280;11075;47.944;11.776;2023-07-22T04:24:47;94862.25;;;5.07;94.70
21826;BME280;11075;47.944;11.776;2023-07-22T04:27:16;94870.59;;;4.59;96.64
21826;BME280;11075;47.944;11.776;2023-07-22T04:29:45;94867.22;;;4.07;100.00
21826;BME280;11075;47.944;11.776;2023-07-22T04:32:12;94868.41;;;4.48;100.00
21826;BME280;11075;47.944;11.776;2023-07-22T04:34:39;94855.91;;;4.76;96.10
21826;BME280;11075;47.944;11.776;2023-07-22T04:37:06;94860.25;;;4.71;97.10
21826;BME280;11075;47.944;11.776;2023-07-22T04:39:33;94861.25;;;4.29;100.00
21826;BME280;11075;47.944;11.776;2023-07-22T04:42:01;94864.31;;;5.10;96.82
21826;BME280;11075;47.944;11.776;2023-07-22T04:44:28;94864.59;;;5.22;95.08
21826;BME280;11075;47.944;11.776;2023-07-22T04:46:55;94868.56;;;4.97;96.65
21826;BME280;11075;47.944;11.776;2023-07-22T04:49:22;94865.09;;;4.83;99.37
21826;BME280;11075;47.944;11.776;2023-07-22T04:51:49;94871.00;;;5.35;96.74
21826;BME280;11075;47.944;11.776;2023-07-22T04:54:17;94851.16;;;5.99;91.48
21826;BME280;11075;47.944;11.776;2023-07-22T04:56:45;94857.72;;;5.93;92.46
21826;BME280;11075;47.944;11.776;2023-07-22T04:59:12;94847.97;;;6.20;91.23
21826;BME280;11075;47.944;11.776;2023-07-22T05:01:40;94852.59;;;6.06;93.36
21826;BME280;11075;47.944;11.776;2023-07-22T05:04:07;94853.22;;;5.80;98.02
21826;BME280;11075;47.944;11.776;2023-07-22T05:06:34;94858.38;;;5.99;98.96
21826;BME280;11075;47.944;11.776;2023-07-22T05:09:02;94861.00;;;5.54;97.20
21826;BME280;11075;47.944;11.776;2023-07-22T05:11:30;94864.69;;;5.31;100.00
21826;BME280;11075;47.944;11.776;2023-07-22T05:13:57;94865.06;;;5.38;100.00
21826;BME280;11075;47.944;11.776;2023-07-22T05:16:24;94861.47;;;6.15;94.50
21826;BME280;11075;47.944;11.776;2023-07-22T05:18:51;94854.78;;;6.48;92.01
21826;BME280;11075;47.944;11.776;2023-07-22T05:21:18;94861.25;;;6.03;96.69
21826;BME280;11075;47.944;11.776;2023-07-22T05:23:45;94862.34;;;6.02;98.34
21826;BME280;11075;47.944;11.776;2023-07-22T05:26:12;94865.63;;;6.74;94.59
21826;BME280;11075;47.944;11.776;2023-07-22T05:28:38;94864.31;;;7.51;88.01
21826;BME280;11075;47.944;11.776;2023-07-22T05:31:05;94867.00;;;7.94;84.94
21826;BME280;11075;47.944;11.776;2023-07-22T05:33:33;94867.34;;;8.10;83.53
21826;BME280;11075;47.944;11.776;2023-07-22T05:35:59;94859.13;;;8.23;83.12
21826;BME280;11075;47.944;11.776;2023-07-22T05:38:26;94850.13;;;7.76;86.63
21826;BME280;11075;47.944;11.776;2023-07-22T05:40:53;94860.81;;;7.42;87.56
21826;BME280;11075;47.944;11.776;2023-07-22T05:43:21;94869.72;;;7.20;89.32
21826;BME280;11075;47.944;11.776;2023-07-22T05:45:48;94871.41;;;6.14;97.99
21826;BME280;11075;47.944;11.776;2023-07-22T05:48:15;94873.47;;;6.71;96.90
21826;BME280;11075;47.944;11.776;2023-07-22T05:50:42;94873.34;;;7.15;95.30
21826;BME280;11075;47.944;11.776;2023-07-22T05:53:09;94872.66;;;7.01;96.91
21826;BME280;11075;47.944;11.776;2023-07-22T05:55:36;94873.94;;;7.60;89.57
21826;BME280;11075;47.944;11.776;2023-07-22T05:58:03;94873.34;;;7.15;94.49
21826;BME280;11075;47.944;11.776;2023-07-22T06:00:33;94874.91;;;7.90;86.80
21826;BME280;11075;47.944;11.776;2023-07-22T06:03:00;94868.75;;;7.99;87.42
21826;BME280;11075;47.944;11.776;2023-07-22T06:05:27;94869.53;;;8.25;87.80
21826;BME280;11075;47.944;11.776;2023-07-22T06:07:54;94872.78;;;8.65;83.68
21826;BME280;11075;47.944;11.776;2023-07-22T06:10:21;94874.16;;;8.07;85.28
21826;BME280;11075;47.944;11.776;2023-07-22T06:12:48;94869.31;;;9.11;76.26
21826;BME280;11075;47.944;11.776;2023-07-22T06:15:15;94875.06;;;7.94;82.26
21826;BME280;11075;47.944;11.776;2023-07-22T06:17:42;94866.69;;;7.04;86.25
21826;BME280;11075;47.944;11.776;2023-07-22T06:20:10;94875.38;;;7.75;85.30
21826;BME280;11075;47.944;11.776;2023-07-22T06:22:37;94882.94;;;7.65;89.65
21826;BME280;11075;47.944;11.776;2023-07-22T06:25:05;94876.16;;;8.02;83.38
21826;BME280;11075;47.944;11.776;2023-07-22T06:27:33;94880.78;;;8.10;85.83
21826;BME280;11075;47.944;11.776;2023-07-22T06:30:00;94879.47;;;7.99;80.57
21826;BME280;11075;47.944;11.776;2023-07-22T06:32:27;94884.66;;;8.55;77.51
21826;BME280;11075;47.944;11.776;2023-07-22T06:34:57;94883.91;;;8.29;82.22
21826;BME280;11075;47.944;11.776;2023-07-22T06:37:24;94885.50;;;8.04;80.18
21826;BME280;11075;47.944;11.776;2023-07-22T06:39:51;94876.47;;;8.35;85.04
21826;BME280;11075;47.944;11.776;2023-07-22T06:42:18;94890.72;;;8.18;80.78
21826;BME280;11075;47.944;11.776;2023-07-22T06:44:45;94886.94;;;8.10;79.09
21826;BME280;11075;47.944;11.776;2023-07-22T06:47:12;94894.31;;;7.70;82.24
21826;BME280;11075;47.944;11.776;2023-07-22T06:49:40;94898.59;;;8.14;78.05
21826;BME280;11075;47.944;11.776;2023-07-22T06:52:10;94895.06;;;8.57;77.15
21826;BME280;11075;47.944;11.776;2023-07-22T06:54:37;94884.47;;;8.61;77.41
21826;BME280;11075;47.944;11.776;2023-07-22T06:57:04;94896.44;;;9.27;70.79
21826;BME280;11075;47.944;11.776;2023-07-22T06:59:32;94900.75;;;9.19;74.22
21826;BME280;11075;47.944;11.776;2023-07-22T07:01:59;94903.63;;;9.44;67.34
21826;BME280;11075;47.944;11.776;2023-07-22T07:04:26;94901.31;;;8.96;68.13
21826;BME280;11075;47.944;11.776;2023-07-22T07:06:54;94902.88;;;8.24;74.97
21826;BME280;11075;47.944;11.776;2023-07-22T07:09:20;94899.25;;;9.69;70.95
21826;BME280;11075;47.944;11.776;2023-07-22T07:11:47;94900.03;;;8.29;74.93
21826;BME280;11075;47.944;11.776;2023-07-22T07:14:14;94909.56;;;8.91;69.44
21826;BME280;11075;47.944;11.776;2023-07-22T07:16:41;94906.09;;;8.73;69.60
21826;BME280;11075;47.944;11.776;2023-07-22T07:19:08;94900.72;;;10.62;58.44
21826;BME280;11075;47.944;11.776;2023-07-22T07:21:35;94907.75;;;10.54;57.75
21826;BME280;11075;47.944;11.776;2023-07-22T07:24:02;94900.75;;;9.49;58.30
21826;BME280;11075;47.944;11.776;2023-07-22T07:26:29;94906.00;;;10.16;60.97
21826;BME280;11075;47.944;11.776;2023-07-22T07:28:56;94909.03;;;10.15;55.96
21826;BME280;11075;47.944;11.776;2023-07-22T07:31:23;94903.13;;;10.22;51.41
21826;BME280;11075;47.944;11.776;2023-07-22T07:33:49;94907.44;;;10.56;52.31
21826;BME280;11075;47.944;11.776;2023-07-22T07:36:17;94907.59;;;9.97;52.48
21826;BME280;11075;47.944;11.776;2023-07-22T07:38:43;94909.63;;;9.79;52.67
21826;BME280;11075;47.944;11.776;2023-07-22T07:41:10;94913.22;;;9.83;55.29
21826;BME280;11075;47.944;11.776;2023-07-22T07:43:41;94914.53;;;10.60;52.39
21826;BME280;11075;47.944;11.776;2023-07-22T07:46:19;94913.63;;;11.01;50.44
21826;BME280;11075;47.944;11.776;2023-07-22T07:48:52;94918.91;;;10.32;50.83
21826;BME280;11075;47.944;11.776;2023-07-22T07:51:20;94915.69;;;11.41;48.09
21826;BME280;11075;47.944;11.776;2023-07-22T07:53:48;94912.78;;;11.70;45.11
21826;BME280;11075;47.944;11.776;2023-07-22T07:56:16;94913.88;;;11.33;50.90
21826;BME280;11075;47.944;11.776;2023-07-22T07:58:45;94916.56;;;11.21;48.35
21826;BME280;11075;47.944;11.776;2023-07-22T08:01:13;94927.94;;;13.11;44.94
21826;BME280;11075;47.944;11.776;2023-07-22T08:03:41;94920.31;;;10.83;46.46
21826;BME280;11075;47.944;11.776;2023-07-22T08:06:09;94910.50;;;11.85;48.69
21826;BME280;11075;47.944;11.776;2023-07-22T08:08:36;94905.19;;;12.00;44.14
21826;BME280;11075;47.944;11.776;2023-07-22T08:11:07;94916.81;;;11.64;46.00
21826;BME280;11075;47.944;11.776;2023-07-22T08:13:35;94915.91;;;11.24;44.02
21826;BME280;11075;47.944;11.776;2023-07-22T08:16:07;94914.81;;;10.92;46.57
21826;BME280;11075;47.944;11.776;2023-07-22T08:18:35;94912.09;;;12.26;43.50
21826;BME280;11075;47.944;11.776;2023-07-22T08:21:03;94914.72;;;12.10;45.25
21826;BME280;11075;47.944;11.776;2023-07-22T08:23:30;94919.16;;;10.72;46.77
21826;BME280;11075;47.944;11.776;2023-07-22T08:25:57;94918.03;;;10.73;47.81
21826;BME280;11075;47.944;11.776;2023-07-22T08:28:24;94918.47;;;9.79;48.00
21826;BME280;11075;47.944;11.776;2023-07-22T08:30:54;94919.63;;;10.74;47.29
21826;BME280;11075;47.944;11.776;2023-07-22T08:33:24;94913.75;;;11.05;45.33
21826;BME280;11075;47.944;11.776;2023-07-22T08:36:05;94911.41;;;11.16;45.85
21826;BME280;11075;47.944;11.776;2023-07-22T08:38:32;94913.44;;;11.55;48.46
21826;BME280;11075;47.944;11.776;2023-07-22T08:40:58;94913.00;;;11.65;47.76
21826;BME280;11075;47.944;11.776;2023-07-22T08:43:27;94905.63;;;13.30;45.41
21826;BME280;11075;47.944;11.776;2023-07-22T08:46:00;94902.81;;;11.99;46.49
21826;BME280;11075;47.944;11.776;2023-07-22T08:48:30;94909.72;;;12.24;47.17
21826;BME280;11075;47.944;11.776;2023-07-22T08:51:06;94914.94;;;12.17;45.36
21826;BME280;11075;47.944;11.776;2023-07-22T08:53:33;94907.94;;;12.56;44.61
21826;BME280;11075;47.944;11.776;2023-07-22T08:56:01;94909.38;;;12.38;43.82
21826;BME280;11075;47.944;11.776;2023-07-22T08:58:29;94917.84;;;12.24;40.35
21826;BME280;11075;47.944;11.776;2023-07-22T09:00:56;94888.94;;;13.44;44.83
21826;BME280;11075;47.944;11.776;2023-07-22T09:03:23;94913.03;;;12.74;40.32
21826;BME280;11075;47.944;11.776;2023-07-22T09:05:50;94923.59;;;14.40;38.59
21826;BME280;11075;47.944;11.776;2023-07-22T09:08:18;94908.06;;;13.35;38.51
21826;BME280;11075;47.944;11.776;2023-07-22T09:10:46;94911.50;;;11.92;42.92
21826;BME280;11075;47.944;11.776;2023-07-22T09:13:13;94909.38;;;11.25;44.75
21826;BME280;11075;47.944;11.776;2023-07-22T09:15:41;94914.00;;;11.73;42.82
21826;BME280;11075;47.944;11.776;2023-07-22T09:18:08;94909.50;;;13.80;39.68
21826;BME280;11075;47.944;11.776;2023-07-22T09:20:35;94896.88;;;13.68;39.00
21826;BME280;11075;47.944;11.776;2023-07-22T09:23:02;94896.63;;;13.42;41.57
21826;BME280;11075;47.944;11.776;2023-07-22T09:25:40;94906.31;;;13.27;40.01
21826;BME280;11075;47.944;11.776;2023-07-22T09:28:08;94915.13;;;13.71;40.66
21826;BME280;11075;47.944;11.776;2023-07-22T09:30:38;94884.47;;;12.04;43.28
21826;BME280;11075;47.944;11.776;2023-07-22T09:33:07;94897.13;;;13.98;40.85
21826;BME280;11075;47.944;11.776;2023-07-22T09:35:49;94890.63;;;13.83;42.19
21826;BME280;11075;47.944;11.776;2023-07-22T09:38:23;94881.75;;;14.21;38.72
21826;BME280;11075;47.944;11.776;2023-07-22T09:40:51;94849.59;;;14.01;40.60
21826;BME280;11075;47.944;11.776;2023-07-22T09:43:18;94886.59;;;13.11;38.62
21826;BME280;11075;47.944;11.776;2023-07-22T09:45:48;94884.09;;;11.66;41.63
21826;BME280;11075;47.944;11.776;2023-07-22T09:48:15;94894.78;;;13.14;37.94
21826;BME280;11075;47.944;11.776;2023-07-22T09:50:43;94899.72;;;12.81;36.34
21826;BME280;11075;47.944;11.776;2023-07-22T09:53:15;94895.22;;;13.63;36.86
21826;BME280;11075;47.944;11.776;2023-07-22T09:55:42;94930.28;;;14.84;34.06
21826;BME280;11075;47.944;11.776;2023-07-22T09:58:09;94891.31;;;14.15;37.47
21826;BME280;11075;47.944;11.776;2023-07-22T10:00:38;94891.88;;;14.82;36.23
21826;BME280;11075;47.944;11.776;2023-07-22T10:03:10;94909.81;;;15.33;34.71
21826;BME280;11075;47.944;11.776;2023-07-22T10:05:40;94903.94;;;14.66;35.37
21826;BME280;11075;47.944;11.776;2023-07-22T10:08:09;94889.97;;;15.78;35.28
21826;BME280;11075;47.944;11.776;2023-07-22T10:10:41;94873.22;;;14.39;39.44
21826;BME280;11075;47.944;11.776;2023-07-22T10:13:10;94858.94;;;13.17;41.90
21826;BME280;11075;47.944;11.776;2023-07-22T10:15:37;94871.56;;;13.60;40.91
21826;BME280;11075;47.944;11.776;2023-07-22T10:18:04;94854.91;;;14.74;38.39
21826;BME280;11075;47.944;11.776;2023-07-22T10:20:34;94841.47;;;14.01;38.53
21826;BME280;11075;47.944;11.776;2023-07-22T10:23:04;94864.81;;;14.44;38.72
21826;BME280;11075;47.944;11.776;2023-07-22T10:25:31;94861.69;;;15.30;37.41
21826;BME280;11075;47.944;11.776;2023-07-22T10:27:58;94864.94;;;15.16;36.75
21826;BME280;11075;47.944;11.776;2023-07-22T10:30:25;94873.47;;;16.53;37.05
21826;BME280;11075;47.944;11.776;2023-07-22T10:32:52;94874.34;;;14.57;36.38
21826;BME280;11075;47.944;11.776;2023-07-22T10:35:40;94870.06;;;16.97;34.11
21826;BME280;11075;47.944;11.776;2023-07-22T10:38:15;94879.41;;;15.99;32.76
21826;BME280;11075;47.944;11.776;2023-07-22T10:40:45;94887.44;;;15.92;33.76
21826;BME280;11075;47.944;11.776;2023-07-22T10:43:15;94868.41;;;16.18;34.29
21826;BME280;11075;47.944;11.776;2023-07-22T10:45:52;94850.78;;;16.05;35.96
21826;BME280;11075;47.944;11.776;2023-07-22T10:48:20;94831.16;;;16.93;35.74
21826;BME280;11075;47.944;11.776;2023-07-22T10:50:51;94841.91;;;15.06;34.90
21826;BME280;11075;47.944;11.776;2023-07-22T10:58:32;94834.66;;;16.57;31.81
21826;BME280;11075;47.944;11.776;2023-07-22T11:14:34;94866.75;;;13.38;34.91
21826;BME280;11075;47.944;11.776;2023-07-22T11:17:03;94813.72;;;13.69;39.32
21826;BME280;11075;47.944;11.776;2023-07-22T11:19:35;94849.78;;;14.27;35.21
21826;BME280;11075;47.944;11.776;2023-07-22T11:22:02;94832.97;;;13.63;35.72
21826;BME280;11075;47.944;11.776;2023-07-22T11:24:32;94824.47;;;13.14;35.77
21826;BME280;11075;47.944;11.776;2023-07-22T11:26:59;94815.13;;;15.27;36.16
21826;BME280;11075;47.944;11.776;2023-07-22T11:29:29;94849.72;;;14.66;35.97
21826;BME280;11075;47.944;11.776;2023-07-22T11:31:56;94814.38;;;17.32;32.99
21826;BME280;11075;47.944;11.776;2023-07-22T11:34:24;94788.88;;;17.58;34.46
21826;BME280;11075;47.944;11.776;2023-07-22T11:36:52;94807.91;;;14.24;33.94
21826;BME280;11075;47.944;11.776;2023-07-22T11:39:24;94790.53;;;13.52;36.84
21826;BME280;11075;47.944;11.776;2023-07-22T11:41:51;94805.03;;;13.98;35.98
21826;BME280;11075;47.944;11.776;2023-07-22T11:44:21;94797.56;;;13.21;36.21
21826;BME280;11075;47.944;11.776;2023-07-22T11:47:01;94811.28;;;13.28;35.99
21826;BME280;11075;47.944;11.776;2023-07-22T11:54:35;94790.97;;;12.28;36.78
21826;BME280;11075;47.944;11.776;2023-07-22T11:59:48;94779.88;;;16.17;33.63
21826;BME280;11075;47.944;11.776;2023-07-22T12:04:57;94777.97;;;13.09;36.00
21826;BME280;11075;47.944;11.776;2023-07-22T12:07:26;94767.13;;;12.93;38.00
21826;BME280;11075;47.944;11.776;2023-07-22T12:09:56;94792.31;;;15.06;33.80
21826;BME280;11075;47.944;11.776;2023-07-22T12:12:36;94771.13;;;13.30;37.89
21826;BME280;11075;47.944;11.776;2023-07-22T12:15:08;94783.44;;;13.28;37.84
21826;BME280;11075;47.944;11.776;2023-07-22T12:20:15;94762.41;;;14.79;35.88
21826;BME280;11075;47.944;11.776;2023-07-22T12:22:42;94760.66;;;13.83;38.07
21826;BME280;11075;47.944;11.776;2023-07-22T12:25:12;94812.88;;;13.14;35.96
21826;BME280;11075;47.944;11.776;2023-07-22T12:27:39;94792.53;;;12.57;35.89
21826;BME280;11075;47.944;11.776;2023-07-22T12:30:06;94786.84;;;12.46;36.91
21826;BME280;11075;47.944;11.776;2023-07-22T12:32:34;94774.44;;;13.24;38.69
21826;BME280;11075;47.944;11.776;2023-07-22T12:35:01;94767.69;;;13.88;37.06
21826;BME280;11075;47.944;11.776;2023-07-22T12:37:29;94781.91;;;13.46;36.87
21826;BME280;11075;47.944;11.776;2023-07-22T12:39:56;94770.47;;;13.02;37.10
21826;BME280;11075;47.944;11.776;2023-07-22T12:42:23;94793.28;;;16.37;33.81
21826;BME280;11075;47.944;11.776;2023-07-22T12:44:51;94781.16;;;14.88;33.97
21826;BME280;11075;47.944;11.776;2023-07-22T12:47:18;94740.75;;;15.06;36.57
21826;BME280;11075;47.944;11.776;2023-07-22T12:49:45;94781.25;;;14.26;34.21
21826;BME280;11075;47.944;11.776;2023-07-22T12:52:12;94764.81;;;15.94;35.13
21826;BME280;11075;47.944;11.776;2023-07-22T12:54:40;94745.84;;;14.61;35.81
21826;BME280;11075;47.944;11.776;2023-07-22T12:57:07;94790.53;;;15.17;34.42
21826;BME280;11075;47.944;11.776;2023-07-22T12:59:34;94789.00;;;16.73;33.30
21826;BME280;11075;47.944;11.776;2023-07-22T13:02:01;94796.81;;;15.47;31.69
21826;BME280;11075;47.944;11.776;2023-07-22T13:04:28;94760.31;;;17.30;31.71
21826;BME280;11075;47.944;11.776;2023-07-22T13:06:54;94713.25;;;16.34;33.22
21826;BME280;11075;47.944;11.776;2023-07-22T13:09:21;94769.88;;;17.10;31.47
21826;BME280;11075;47.944;11.776;2023-07-22T13:11:48;94710.81;;;16.22;33.78
21826;BME280;11075;47.944;11.776;2023-07-22T13:14:15;94723.78;;;17.38;33.42
21826;BME280;11075;47.944;11.776;2023-07-22T13:16:44;94721.72;;;17.17;33.19
21826;BME280;11075;47.944;11.776;2023-07-22T13:19:11;94744.19;;;15.29;31.54
21826;BME280;11075;47.944;11.776;2023-07-22T13:21:37;94711.75;;;14.38;34.01
21826;BME280;11075;47.944;11.776;2023-07-22T13:24:04;94711.06;;;14.21;36.89
21826;BME280;11075;47.944;11.776;2023-07-22T13:26:31;94728.25;;;14.29;35.19
21826;BME280;11075;47.944;11.776;2023-07-22T13:28:58;94756.94;;;14.53;32.04
21826;BME280;11075;47.944;11.776;2023-07-22T13:31:25;94714.75;;;14.55;36.44